Time;durP1;ratioP1;P1;durP2;ratioP2;P2;SDS_P1;SDS_P2;PMS_P1;PMS_P2;Temp;Humidity;BMP_temperature;BMP_pressure;BME280_temperature;BME280_humidity;BME280_pressure;Samples;Min_cycle;Max_cycle;Signal;HPM_P1;HPM_P2
2020/12/25 00:01:36;;;;;;;8.70;4.65;;;4.30;99.90;;;5.18;91.32;100804.75;4995430;28;20041;-80
2020/12/25 00:04:02;;;;;;;8.55;4.75;;;4.30;99.90;;;5.17;91.75;100813.41;4995426;28;20030;-82
2020/12/25 00:06:38;;;;;;;9.70;5.22;;;4.30;99.90;;;5.16;91.52;100811.75;4976799;28;20478;-78
2020/12/25 00:09:05;;;;;;;18.58;5.35;;;4.30;99.90;;;5.10;90.57;100815.81;4991347;28;20035;-82
2020/12/25 00:11:36;;;;;;;10.00;5.10;;;4.30;99.90;;;5.10;90.39;100826.88;4978006;28;20026;-79
2020/12/25 00:14:03;;;;;;;8.30;5.53;;;4.30;99.90;;;5.18;89.64;100823.31;4994128;28;20033;-81
2020/12/25 00:16:30;;;;;;;8.35;4.55;;;4.40;99.90;;;5.13;89.80;100829.84;4994163;28;20058;-81
2020/12/25 00:18:56;;;;;;;8.85;4.78;;;4.30;99.90;;;5.12;89.48;100830.13;4995418;28;20034;-81
2020/12/25 00:21:23;;;;;;;10.45;4.65;;;4.30;99.90;;;5.16;89.80;100831.16;4994208;28;20074;-79
2020/12/25 00:23:49;;;;;;;16.55;5.88;;;4.30;99.90;;;5.15;88.98;100829.50;4976824;28;20117;-81
2020/12/25 00:26:41;;;;;;;9.93;5.82;;;4.30;99.90;;;5.07;89.13;100828.31;4976948;28;20030;-81
2020/12/25 00:29:08;;;;;;;9.20;5.32;;;4.30;99.90;;;5.07;89.19;100836.63;4993111;28;20398;-81
2020/12/25 00:31:40;;;;;;;10.57;5.35;;;4.30;99.90;;;5.07;89.64;100849.66;4994945;28;20125;-81
2020/12/25 00:34:10;;;;;;;9.60;5.05;;;4.30;99.90;;;5.05;89.63;100847.19;4978680;28;20485;-81
2020/12/25 00:36:41;;;;;;;15.05;5.57;;;4.30;99.90;;;5.00;90.18;100843.75;4979545;28;20117;-83
2020/12/25 00:39:13;;;;;;;14.52;4.85;;;4.20;99.90;;;5.03;90.39;100851.44;4979259;28;20540;-82
2020/12/25 00:41:47;;;;;;;8.68;4.65;;;4.20;99.90;;;5.07;89.81;100860.75;4980208;28;20313;-82
2020/12/25 00:44:14;;;;;;;12.57;4.90;;;4.20;99.90;;;4.97;89.82;100859.03;4986072;28;20038;-83
2020/12/25 00:46:42;;;;;;;8.15;5.55;;;4.20;99.90;;;5.04;89.02;100859.41;4991555;28;20034;-79
2020/12/25 00:49:10;;;;;;;9.85;4.75;;;4.20;99.90;;;5.02;89.28;100864.44;4995215;28;20085;-79
2020/12/25 00:51:36;;;;;;;11.88;4.88;;;4.20;99.90;;;5.05;88.63;100858.28;4994272;28;20105;-79
2020/12/25 00:54:03;;;;;;;9.65;4.43;;;4.20;99.90;;;5.05;87.99;100860.22;4976865;28;20040;-80
2020/12/25 00:56:29;;;;;;;9.45;4.53;;;4.20;99.90;;;5.05;88.05;100861.03;4977012;28;20177;-80
2020/12/25 00:58:54;;;;;;;12.65;4.15;;;4.20;99.90;;;5.03;88.08;100862.50;4994658;28;20113;-79
2020/12/25 01:01:21;;;;;;;6.90;4.50;;;4.20;99.90;;;4.99;87.66;100869.78;4994614;28;20426;-80
2020/12/25 01:03:47;;;;;;;9.57;4.50;;;4.20;99.90;;;4.91;88.21;100873.34;4976966;28;20041;-79
2020/12/25 01:06:21;;;;;;;8.20;4.80;;;4.20;99.90;;;4.90;88.09;100882.75;4990958;28;20061;-81
2020/12/25 01:08:49;;;;;;;10.73;4.70;;;4.10;99.90;;;4.86;88.42;100885.34;4989073;28;20034;-81
2020/12/25 01:11:22;;;;;;;8.25;4.35;;;4.10;99.90;;;4.85;88.32;100888.44;4994275;28;20478;-80
2020/12/25 01:13:48;;;;;;;14.70;5.15;;;4.10;99.90;;;4.77;88.68;100890.81;4994126;28;20420;-80
2020/12/25 01:16:15;;;;;;;10.32;4.40;;;4.00;99.90;;;4.77;88.30;100896.34;4993008;28;20030;-81
2020/12/25 01:18:49;;;;;;;9.48;4.72;;;4.00;99.90;;;4.77;87.63;100898.28;4976750;28;20478;-80
2020/12/25 01:21:16;;;;;;;5.70;4.32;;;4.00;99.90;;;4.76;87.93;100908.53;4976765;28;20450;-79
2020/12/25 01:23:44;;;;;;;8.80;4.35;;;4.00;99.90;;;4.76;87.53;100899.41;4976205;28;20031;-80
2020/12/25 01:26:10;;;;;;;9.30;4.35;;;3.90;99.90;;;4.76;87.79;100914.06;4976583;28;20104;-81
2020/12/25 01:28:37;;;;;;;9.48;4.45;;;3.90;99.90;;;4.76;87.35;100911.31;4993819;28;20038;-80
2020/12/25 01:31:04;;;;;;;8.25;4.57;;;3.90;99.90;;;4.78;87.69;100920.09;4976123;28;20038;-81
2020/12/25 01:33:35;;;;;;;7.38;4.00;;;3.90;99.90;;;4.74;87.64;100916.34;4993963;28;20030;-79
2020/12/25 01:36:05;;;;;;;10.95;4.30;;;3.90;99.90;;;4.69;87.97;100926.69;4976245;28;20542;-82
2020/12/25 01:38:32;;;;;;;6.20;4.18;;;3.90;99.90;;;4.71;87.49;100929.97;4973935;28;20055;-78
2020/12/25 01:40:59;;;;;;;7.60;3.65;;;3.90;99.90;;;4.69;87.41;100924.75;4976170;28;20034;-80
2020/12/25 01:43:25;;;;;;;7.30;3.83;;;3.90;99.90;;;4.68;87.05;100938.91;4970622;28;20093;-79
2020/12/25 01:45:52;;;;;;;11.00;4.15;;;3.80;99.90;;;4.67;87.23;100934.50;4980291;28;20105;-80
2020/12/25 01:48:19;;;;;;;6.28;3.72;;;3.80;99.90;;;4.60;87.39;100951.53;4991972;28;20038;-79
2020/12/25 01:50:46;;;;;;;10.00;3.85;;;3.80;99.90;;;4.55;87.64;100942.53;4968544;28;20094;-78
2020/12/25 01:53:18;;;;;;;8.48;4.22;;;3.80;99.90;;;4.56;88.07;100960.78;4973861;28;20544;-80
2020/12/25 01:55:44;;;;;;;8.75;4.00;;;3.70;99.90;;;4.51;87.35;100958.91;4956592;28;20033;-80
2020/12/25 01:58:14;;;;;;;8.27;4.03;;;3.70;99.90;;;4.52;87.79;100968.88;4974086;28;20399;-81
2020/12/25 02:00:42;;;;;;;7.25;3.63;;;3.70;99.90;;;4.50;87.47;100968.34;4973844;28;20117;-78
2020/12/25 02:03:07;;;;;;;10.05;3.92;;;3.70;99.90;;;4.56;86.84;100969.06;4972781;28;20512;-79
2020/12/25 02:05:37;;;;;;;9.23;3.85;;;3.70;99.90;;;4.47;87.06;100971.72;4972524;28;20118;-80
2020/12/25 02:08:03;;;;;;;6.47;3.70;;;3.70;99.90;;;4.48;86.91;100961.50;4973887;28;20030;-81
2020/12/25 02:10:33;;;;;;;7.82;3.92;;;3.70;99.90;;;4.46;86.93;100963.75;4974311;28;20056;-79
2020/12/25 02:13:00;;;;;;;7.05;3.35;;;3.70;99.90;;;4.42;86.46;100966.31;4973648;28;20031;-79
2020/12/25 02:15:29;;;;;;;6.60;3.45;;;3.60;99.90;;;4.46;86.57;100974.81;4956475;28;20058;-84
2020/12/25 02:17:54;;;;;;;9.57;3.28;;;3.60;99.90;;;4.35;86.40;100981.69;4973910;28;20029;-81
2020/12/25 02:20:20;;;;;;;11.10;3.53;;;3.60;99.90;;;4.38;86.35;100981.06;4972512;28;20034;-82
2020/12/25 02:22:46;;;;;;;9.15;3.25;;;3.60;99.90;;;4.32;86.61;100985.06;4973800;28;20056;-81
2020/12/25 02:25:12;;;;;;;9.05;3.55;;;3.50;99.90;;;4.27;86.64;100979.66;4974652;28;20542;-83
2020/12/25 02:27:39;;;;;;;7.65;3.20;;;3.50;99.90;;;4.19;87.54;100983.94;4974660;28;20035;-82
2020/12/25 02:30:07;;;;;;;8.55;2.60;;;3.50;99.90;;;4.18;86.85;100974.81;4975015;28;20177;-84
2020/12/25 02:32:35;;;;;;;5.75;2.67;;;3.40;99.90;;;4.23;86.90;100984.97;4957055;28;20418;-84
2020/12/25 02:35:03;;;;;;;7.15;2.60;;;3.40;99.90;;;4.23;86.33;100996.84;4974968;28;20391;-85
2020/12/25 02:37:29;;;;;;;4.82;2.90;;;3.50;99.90;;;4.24;86.34;100992.94;4973381;28;20039;-85
2020/12/25 02:39:55;;;;;;;8.27;2.83;;;3.40;99.90;;;4.30;85.85;100990.09;4973374;28;20418;-83
2020/12/25 02:42:21;;;;;;;6.95;2.50;;;3.40;99.90;;;4.29;85.67;100994.81;4973673;28;20045;-84
2020/12/25 02:44:47;;;;;;;4.90;2.15;;;3.50;99.90;;;4.28;85.93;101000.63;4957516;28;20034;-81
2020/12/25 02:47:13;;;;;;;6.82;2.80;;;3.50;99.90;;;4.30;86.00;101009.44;4975817;28;20030;-82
2020/12/25 02:49:40;;;;;;;13.63;2.25;;;3.50;99.90;;;4.26;86.30;101006.47;4977386;28;20126;-81
2020/12/25 02:52:06;;;;;;;6.38;2.13;;;3.50;99.90;;;4.31;86.11;101005.53;4977492;28;20023;-83
2020/12/25 02:54:32;;;;;;;8.15;2.50;;;3.50;99.90;;;4.31;86.16;101014.66;4979055;28;20033;-81
2020/12/25 02:56:58;;;;;;;8.35;3.08;;;3.50;99.90;;;4.32;86.25;101021.84;4979623;28;20031;-84
2020/12/25 02:59:25;;;;;;;7.82;2.30;;;3.50;99.90;;;4.34;85.94;101025.09;4982704;28;20031;-83
2020/12/25 03:01:52;;;;;;;7.05;3.00;;;3.50;99.90;;;4.34;85.60;101027.88;4992161;28;20027;-83
2020/12/25 03:04:19;;;;;;;7.47;2.33;;;3.50;99.90;;;4.32;85.25;101038.44;4992210;28;20042;-81
2020/12/25 03:06:50;;;;;;;6.72;1.88;;;3.50;99.90;;;4.29;86.27;101043.75;4977587;28;20042;-80
2020/12/25 03:09:16;;;;;;;8.25;1.90;;;3.50;99.90;;;4.29;85.67;101043.75;4959683;28;20037;-79
2020/12/25 03:11:42;;;;;;;5.53;1.90;;;3.50;99.90;;;4.30;85.58;101051.75;4975754;28;20023;-84
2020/12/25 03:14:08;;;;;;;11.35;2.20;;;3.50;99.90;;;4.34;85.42;101050.00;4976735;28;20019;-83
2020/12/25 03:16:35;;;;;;;3.70;1.50;;;3.50;99.90;;;4.33;85.45;101050.31;4976767;28;20513;-82
2020/12/25 03:19:01;;;;;;;6.18;2.08;;;3.50;99.90;;;4.34;85.45;101051.94;4959339;28;20042;-83
2020/12/25 03:21:29;;;;;;;9.38;2.03;;;3.50;99.90;;;4.30;85.22;101054.53;4975450;28;20031;-83
2020/12/25 03:23:59;;;;;;;7.25;1.67;;;3.50;99.90;;;4.25;85.31;101060.13;4975495;28;20325;-83
2020/12/25 03:26:25;;;;;;;6.22;1.40;;;3.50;99.90;;;4.30;84.80;101062.00;4976612;28;20554;-83
2020/12/25 03:28:51;;;;;;;7.07;2.50;;;3.50;99.90;;;4.23;85.33;101060.44;4959154;28;20125;-84
2020/12/25 03:31:17;;;;;;;6.85;1.83;;;3.50;99.90;;;4.23;85.14;101063.22;4975313;28;20038;-83
2020/12/25 03:33:44;;;;;;;6.13;1.63;;;3.40;99.90;;;4.24;85.45;101064.00;4976347;28;20513;-83
2020/12/25 03:36:09;;;;;;;10.35;1.85;;;3.40;99.90;;;4.25;85.29;101068.44;4975257;28;20447;-81
2020/12/25 03:38:35;;;;;;;10.65;1.88;;;3.40;99.90;;;4.27;85.85;101076.44;4975019;28;20082;-81
2020/12/25 03:41:03;;;;;;;9.90;2.00;;;3.40;99.90;;;4.27;85.26;101071.69;4975063;28;20379;-80
2020/12/25 03:43:29;;;;;;;5.80;1.60;;;3.50;99.90;;;4.24;85.41;101075.06;4958634;28;20034;-80
2020/12/25 03:45:55;;;;;;;5.35;1.45;;;3.40;99.90;;;4.19;85.05;101086.25;4976273;28;20031;-82
2020/12/25 03:48:21;;;;;;;6.00;1.67;;;3.40;99.90;;;4.19;85.24;101086.25;4976215;28;20495;-81
2020/12/25 03:50:47;;;;;;;4.20;1.67;;;3.40;99.90;;;4.19;85.11;101086.25;4976185;28;20144;-81
2020/12/25 03:53:15;;;;;;;7.13;1.40;;;3.40;99.90;;;4.13;85.42;101088.28;4976778;28;20033;-81
2020/12/25 03:55:41;;;;;;;9.18;1.58;;;3.30;99.90;;;4.11;85.24;101087.75;4982721;28;20092;-80
2020/12/25 03:58:07;;;;;;;11.18;1.80;;;3.30;99.90;;;4.01;85.60;101090.72;4987569;28;20030;-80
2020/12/25 04:00:32;;;;;;;7.45;1.38;;;3.30;99.90;;;3.93;85.59;101096.94;4996080;28;20026;-81
2020/12/25 04:02:58;;;;;;;8.48;1.85;;;3.20;99.90;;;3.83;86.09;101091.59;4981038;28;20041;-82
2020/12/25 04:05:24;;;;;;;9.65;1.58;;;3.10;99.90;;;3.76;86.35;101101.41;4976760;28;20030;-79
2020/12/25 04:07:50;;;;;;;8.80;1.88;;;3.00;99.90;;;3.65;86.40;101093.28;4988066;28;20041;-81
2020/12/25 04:10:16;;;;;;;7.43;1.35;;;2.90;99.90;;;3.53;87.21;101097.63;4980439;28;20041;-80
2020/12/25 04:12:42;;;;;;;6.22;1.85;;;2.80;99.90;;;3.36;87.11;101097.31;4980821;28;20026;-81
2020/12/25 04:15:07;;;;;;;7.35;1.73;;;2.60;99.90;;;3.29;87.49;101097.69;4999729;28;20027;-82
2020/12/25 04:17:33;;;;;;;8.65;2.72;;;2.50;99.90;;;3.13;88.15;101102.63;5004490;28;20026;-83
2020/12/25 04:19:59;;;;;;;5.38;1.67;;;2.40;99.90;;;3.08;88.13;101101.88;4984307;28;20027;-82
2020/12/25 04:22:26;;;;;;;10.27;1.98;;;2.30;99.90;;;3.05;88.05;101110.75;4997423;28;20038;-83
2020/12/25 04:24:51;;;;;;;7.30;1.75;;;2.30;99.90;;;2.98;88.20;101113.06;4996759;28;20034;-79
2020/12/25 04:27:17;;;;;;;8.45;1.63;;;2.20;99.90;;;2.86;88.94;101115.44;4995321;28;20041;-81
2020/12/25 04:29:43;;;;;;;9.90;1.63;;;2.20;99.90;;;2.74;89.05;101115.84;4995128;28;20057;-81
2020/12/25 04:32:09;;;;;;;5.70;1.80;;;2.00;99.90;;;2.67;89.38;101124.47;4987000;28;20684;-83
2020/12/25 04:34:35;;;;;;;10.60;1.77;;;2.00;99.90;;;2.62;89.37;101120.97;4995850;28;20027;-79
2020/12/25 04:37:00;;;;;;;11.32;1.75;;;1.90;99.90;;;2.62;89.70;101118.19;5002488;28;20026;-81
2020/12/25 04:39:27;;;;;;;6.18;1.60;;;1.90;99.90;;;2.52;89.80;101124.66;4997632;28;20063;-82
2020/12/25 04:41:56;;;;;;;10.23;2.40;;;1.80;99.90;;;2.41;89.96;101131.38;4988815;28;20089;-80
2020/12/25 04:44:22;;;;;;;9.55;1.70;;;1.70;99.90;;;2.34;89.99;101141.97;4998437;28;20380;-82
2020/12/25 04:46:51;;;;;;;7.43;1.50;;;1.70;99.90;;;2.30;90.38;101151.91;5001798;28;20038;-82
2020/12/25 04:49:20;;;;;;;8.02;1.55;;;1.60;99.90;;;2.21;90.22;101152.84;4995819;28;20034;-81
2020/12/25 04:51:46;;;;;;;5.53;1.90;;;1.50;99.90;;;2.09;90.72;101153.19;4991431;28;20034;-81
2020/12/25 04:54:12;;;;;;;10.15;2.05;;;1.40;99.90;;;2.08;90.88;101154.34;4994700;28;20026;-82
2020/12/25 04:56:38;;;;;;;9.52;1.65;;;1.40;99.90;;;2.04;90.99;101161.53;4991323;28;20188;-81
2020/12/25 04:59:04;;;;;;;11.85;1.83;;;1.30;99.90;;;1.95;90.71;101169.59;4975754;28;20482;-82
2020/12/25 05:01:31;;;;;;;4.55;1.40;;;1.30;99.90;;;1.84;91.05;101164.44;5000974;28;20021;-82
2020/12/25 05:03:56;;;;;;;10.63;1.88;;;1.20;99.90;;;1.77;91.27;101163.94;5009245;28;20085;-82
2020/12/25 05:06:22;;;;;;;8.13;1.90;;;1.10;99.90;;;1.70;91.64;101180.00;4998085;28;20037;-79
2020/12/25 05:08:52;;;;;;;7.03;1.33;;;1.00;99.90;;;1.67;91.80;101184.13;5005798;28;20031;-82
2020/12/25 05:11:21;;;;;;;5.53;1.55;;;1.00;99.90;;;1.66;92.00;101178.91;5009186;28;20007;-81
2020/12/25 05:13:55;;;;;;;4.93;1.42;;;0.90;99.90;;;1.62;91.99;101177.84;5009058;28;20043;-82
2020/12/25 05:16:22;;;;;;;6.88;1.80;;;0.90;99.90;;;1.59;91.96;101187.50;5009096;28;20038;-82
2020/12/25 05:18:53;;;;;;;16.70;2.53;;;0.90;99.90;;;1.57;92.57;101179.50;4989717;28;20106;-83
2020/12/25 05:21:22;;;;;;;8.68;2.15;;;0.90;99.90;;;1.55;92.52;101190.00;5006111;28;20034;-82
2020/12/25 05:23:50;;;;;;;8.95;1.63;;;0.90;99.90;;;1.49;92.52;101182.88;4973566;28;20035;-81
2020/12/25 05:26:18;;;;;;;6.28;1.70;;;0.80;99.90;;;1.46;92.63;101185.38;4974839;28;20519;-79
2020/12/25 05:28:50;;;;;;;11.77;2.10;;;0.80;99.90;;;1.43;93.19;101188.69;4987363;28;20030;-82
2020/12/25 05:31:18;;;;;;;7.15;1.67;;;0.80;99.90;;;1.41;92.86;101193.66;4994584;28;20023;-80
2020/12/25 05:33:47;;;;;;;12.70;2.20;;;0.70;99.90;;;1.38;93.56;101189.53;4977012;28;20545;-81
2020/12/25 05:36:15;;;;;;;7.05;2.58;;;0.70;99.90;;;1.37;93.20;101185.16;4994115;28;20034;-81
2020/12/25 05:38:48;;;;;;;12.73;2.67;;;0.70;99.90;;;1.36;93.66;101179.91;4987630;28;20497;-80
2020/12/25 05:41:15;;;;;;;10.20;1.73;;;0.70;99.90;;;1.34;93.47;101182.97;4993721;28;20042;-80
2020/12/25 05:43:52;;;;;;;13.45;2.05;;;0.70;99.90;;;1.30;93.38;101183.81;5001291;23;20054;-85
2020/12/25 05:46:20;;;;;;;6.35;1.83;;;0.70;99.90;;;1.24;93.73;101177.53;4957491;29;20118;-85
2020/12/25 05:48:52;;;;;;;10.60;1.70;;;0.60;99.90;;;1.22;94.04;101182.47;4942749;29;20031;-86
2020/12/25 05:51:21;;;;;;;8.00;1.65;;;0.60;99.90;;;1.21;93.57;101188.28;4942017;29;20026;-86
2020/12/25 05:53:53;;;;;;;12.68;2.65;;;0.50;99.90;;;1.21;93.60;101186.34;4958130;29;20046;-87
2020/12/25 05:56:19;;;;;;;16.88;2.25;;;0.50;99.90;;;1.23;93.81;101192.38;4943697;29;20032;-84
2020/12/25 05:58:48;;;;;;;12.30;2.90;;;0.50;99.90;;;1.31;93.61;101200.06;4952515;29;20291;-85
2020/12/25 06:01:14;;;;;;;9.77;2.38;;;0.60;99.90;;;1.27;93.40;101198.97;4939556;29;20035;-85
2020/12/25 06:03:42;;;;;;;11.75;2.28;;;0.60;99.90;;;1.25;93.55;101203.13;4938657;29;20063;-85
2020/12/25 06:06:14;;;;;;;9.60;1.92;;;0.50;99.90;;;1.15;93.20;101214.16;4923471;29;20035;-85
2020/12/25 06:09:04;;;;;;;8.18;2.05;;;0.50;99.90;;;1.03;93.40;101206.22;4939224;29;20044;-86
2020/12/25 06:11:33;;;;;;;8.18;2.10;;;0.40;99.90;;;0.92;93.60;101221.97;4935932;29;20097;-86
2020/12/25 06:13:59;;;;;;;10.82;2.30;;;0.30;99.90;;;0.87;93.75;101230.19;4960496;28;20066;-85
2020/12/25 06:16:29;;;;;;;11.65;2.35;;;0.30;99.90;;;0.92;94.23;101232.97;4957601;29;20068;-85
2020/12/25 06:19:32;;;;;;;10.70;2.28;;;0.30;99.90;;;1.03;94.40;101236.47;4957350;29;20462;-88
2020/12/25 06:22:05;;;;;;;10.27;2.25;;;0.30;99.90;;;1.11;94.07;101240.59;4957579;28;20147;-86
2020/12/25 06:24:38;;;;;;;4.80;1.70;;;0.40;99.90;;;1.23;93.97;101247.41;4959781;29;20082;-88
2020/12/25 06:27:05;;;;;;;7.30;2.40;;;0.50;99.90;;;1.38;94.30;101254.78;4944596;29;20039;-86
2020/12/25 06:29:32;;;;;;;11.40;2.78;;;0.70;99.90;;;1.45;94.46;101250.59;4959672;29;20066;-85
2020/12/25 06:32:04;;;;;;;6.93;2.33;;;0.80;99.90;;;1.52;94.23;101247.53;4956384;29;20055;-87
2020/12/25 06:34:48;;;;;;;11.48;2.38;;;0.80;99.90;;;1.59;94.35;101242.56;4939862;29;20027;-87
2020/12/25 06:37:18;;;;;;;6.78;2.13;;;0.90;99.90;;;1.66;94.28;101250.50;4976323;28;20043;-85
2020/12/25 06:40:03;;;;;;;9.88;3.35;;;0.90;99.90;;;1.76;94.23;101255.97;4953041;28;20035;-86
2020/12/25 06:42:35;;;;;;;12.27;2.13;;;1.00;99.90;;;1.78;93.89;101259.25;4959755;29;20039;-86
2020/12/25 06:45:12;;;;;;;9.85;2.28;;;1.10;99.90;;;1.81;93.98;101255.91;4964940;28;20397;-86
2020/12/25 06:47:40;;;;;;;6.90;2.10;;;1.10;99.90;;;1.84;94.13;101266.34;4942486;29;20028;-87
2020/12/25 06:50:18;;;;;;;12.90;3.20;;;1.10;99.90;;;1.89;93.63;101269.09;4943266;29;20051;-88
2020/12/25 06:53:01;;;;;;;10.07;2.38;;;1.20;99.90;;;1.92;93.66;101274.88;4942602;29;20391;-87
2020/12/25 06:55:44;;;;;;;8.98;2.58;;;1.20;99.90;;;1.94;93.75;101274.56;4949275;29;20043;-85
2020/12/25 06:58:22;;;;;;;8.77;2.30;;;1.20;99.90;;;1.95;93.57;101265.19;4966813;28;20031;-86
2020/12/25 07:00:56;;;;;;;11.10;2.85;;;1.20;99.90;;;1.98;93.85;101265.44;4974429;28;20032;-86
2020/12/25 07:03:26;;;;;;;8.20;2.03;;;1.30;99.90;;;2.01;94.10;101264.88;4972631;29;20032;-85
2020/12/25 07:05:54;;;;;;;6.35;2.83;;;1.30;99.90;;;2.04;93.69;101278.06;4981347;28;20035;-85
2020/12/25 07:08:38;;;;;;;9.30;2.42;;;1.30;99.90;;;2.05;93.83;101279.72;4957898;29;20055;-85
2020/12/25 07:11:10;;;;;;;8.52;2.63;;;1.40;99.90;;;2.10;93.84;101279.69;4969303;29;20030;-84
2020/12/25 07:13:40;;;;;;;11.52;3.08;;;1.40;99.90;;;2.13;93.96;101279.09;4968097;29;20027;-86
2020/12/25 07:16:07;;;;;;;13.35;2.75;;;1.50;99.90;;;2.14;93.92;101279.94;4943995;29;20082;-86
2020/12/25 07:18:34;;;;;;;9.10;2.67;;;1.40;99.90;;;2.21;93.95;101279.63;4941810;29;20058;-87
2020/12/25 07:21:04;;;;;;;10.77;2.40;;;1.40;99.90;;;2.24;93.45;101285.38;4958099;29;20035;-86
2020/12/25 07:23:30;;;;;;;15.02;3.22;;;1.50;99.90;;;2.30;93.73;101288.91;4951080;29;20058;-85
2020/12/25 07:26:02;;;;;;;10.18;2.42;;;1.60;99.90;;;2.30;93.57;101289.75;4958183;29;20038;-86
2020/12/25 07:28:29;;;;;;;10.20;2.47;;;1.50;99.90;;;2.32;93.30;101294.94;4943416;29;20039;-85
2020/12/25 07:30:57;;;;;;;12.25;3.90;;;1.50;99.90;;;2.36;93.18;101309.81;4945421;29;20027;-86
2020/12/25 07:33:24;;;;;;;9.82;2.53;;;1.60;99.90;;;2.35;93.36;101305.41;4945509;29;20032;-86
2020/12/25 07:35:54;;;;;;;14.43;2.67;;;1.60;99.90;;;2.35;93.14;101302.63;4966496;29;20037;-84
2020/12/25 07:38:27;;;;;;;10.55;3.33;;;1.60;99.90;;;2.40;93.15;101319.16;4970825;29;20116;-84
2020/12/25 07:40:53;;;;;;;17.90;3.35;;;1.60;99.90;;;2.42;93.28;101317.75;4955134;29;20039;-84
2020/12/25 07:43:19;;;;;;;11.50;3.50;;;1.70;99.90;;;2.42;93.42;101323.28;4961347;29;20031;-84
2020/12/25 07:45:47;;;;;;;11.32;2.83;;;1.70;99.90;;;2.46;93.07;101320.75;4970175;28;20071;-86
2020/12/25 07:48:14;;;;;;;13.10;3.63;;;1.70;99.90;;;2.46;93.02;101327.09;4954264;29;20403;-84
2020/12/25 07:50:44;;;;;;;10.57;3.05;;;1.70;99.90;;;2.54;92.88;101329.22;4968778;28;20031;-84
2020/12/25 07:53:18;;;;;;;11.35;3.53;;;1.80;99.90;;;2.61;92.45;101328.91;4964881;29;20035;-85
2020/12/25 07:55:47;;;;;;;11.43;3.20;;;1.80;99.90;;;2.63;92.88;101333.00;4963428;29;20444;-84
2020/12/25 07:58:18;;;;;;;14.10;3.75;;;1.80;99.90;;;2.73;92.20;101332.09;4962110;29;20046;-87
2020/12/25 08:00:49;;;;;;;11.10;3.17;;;1.90;99.90;;;2.76;92.25;101339.00;4944692;29;20046;-86
2020/12/25 08:03:15;;;;;;;11.05;3.30;;;1.90;99.90;;;2.79;91.79;101344.75;4958972;29;20109;-85
2020/12/25 08:05:41;;;;;;;11.25;3.67;;;2.00;99.90;;;2.84;91.45;101349.41;4944495;29;20039;-86
2020/12/25 08:08:10;;;;;;;9.32;3.85;;;2.10;99.90;;;2.84;91.41;101343.88;4944075;29;20031;-85
2020/12/25 08:10:37;;;;;;;12.20;4.70;;;2.00;99.90;;;2.85;91.81;101351.06;4959237;29;20031;-84
2020/12/25 08:13:06;;;;;;;13.85;4.07;;;2.10;99.90;;;2.89;91.80;101350.16;4941172;29;20118;-84
2020/12/25 08:15:34;;;;;;;17.10;4.05;;;2.10;99.90;;;2.96;91.81;101349.81;4942669;29;20031;-84
2020/12/25 08:18:06;;;;;;;11.75;3.42;;;2.10;99.90;;;2.98;91.50;101355.91;4959519;28;20564;-85
2020/12/25 08:20:33;;;;;;;11.38;3.88;;;2.20;99.90;;;3.01;91.51;101361.66;4943569;29;20072;-85
2020/12/25 08:23:01;;;;;;;14.43;3.97;;;2.20;99.90;;;2.96;90.99;101344.31;4960337;29;20027;-87
2020/12/25 08:25:30;;;;;;;8.98;3.10;;;2.20;99.90;;;2.86;91.19;101353.50;4960928;29;20046;-85
2020/12/25 08:27:57;;;;;;;8.75;3.08;;;2.10;99.90;;;2.80;91.32;101353.84;4946529;29;20039;-87
2020/12/25 08:30:26;;;;;;;9.00;3.72;;;2.10;99.90;;;2.70;91.47;101340.16;4947040;29;20471;-85
2020/12/25 08:33:00;;;;;;;11.05;4.03;;;2.00;99.90;;;2.56;91.53;101340.00;4946212;29;20035;-83
2020/12/25 08:35:30;;;;;;;14.90;4.13;;;1.80;99.90;;;2.49;92.06;101347.75;4946388;29;20035;-85
2020/12/25 08:38:03;;;;;;;13.35;3.70;;;1.80;99.90;;;2.48;92.23;101348.84;4946995;29;20065;-84
2020/12/25 08:40:39;;;;;;;13.55;3.80;;;1.70;99.90;;;2.41;92.63;101351.16;4964629;29;20498;-86
2020/12/25 08:43:16;;;;;;;9.77;3.60;;;1.70;99.90;;;2.36;92.88;101353.91;4962080;28;20031;-85
2020/12/25 08:45:59;;;;;;;10.05;3.83;;;1.60;99.90;;;2.35;92.79;101349.50;4944207;29;20070;-85
2020/12/25 08:48:27;;;;;;;13.93;4.25;;;1.60;99.90;;;2.34;92.93;101356.97;4960092;29;20028;-86
2020/12/25 08:51:16;;;;;;;8.75;4.10;;;1.60;99.90;;;2.37;92.80;101350.06;4936610;29;20403;-85
2020/12/25 08:53:55;;;;;;;11.93;4.03;;;1.60;99.90;;;2.44;93.35;101347.81;4964429;28;20644;-85
2020/12/25 08:56:26;;;;;;;9.85;4.78;;;1.60;99.90;;;2.66;93.44;101348.19;4962028;29;20122;-89
2020/12/25 08:58:59;;;;;;;17.95;5.55;;;1.90;99.90;;;3.04;93.35;101349.22;4965458;29;20046;-82
2020/12/25 09:01:33;;;;;;;12.38;5.03;;;2.20;99.90;;;3.37;92.24;101342.75;4984261;28;20027;-84
2020/12/25 09:03:59;;;;;;;8.32;4.15;;;2.40;99.90;;;3.62;91.46;101341.66;4992709;28;20184;-84
2020/12/25 09:06:27;;;;;;;12.77;4.20;;;2.60;99.90;;;3.70;89.84;101347.34;4990510;28;20457;-86
2020/12/25 09:08:54;;;;;;;17.65;4.43;;;2.80;99.90;;;3.94;89.41;101352.03;4955176;29;20103;-84
2020/12/25 09:11:28;;;;;;;12.02;4.10;;;3.00;99.90;;;4.19;89.02;101358.03;4953144;29;20376;-87
2020/12/25 09:13:59;;;;;;;13.18;3.90;;;3.20;99.90;;;4.44;87.64;101359.59;4952893;29;20046;-82
2020/12/25 09:16:31;;;;;;;9.95;3.78;;;3.50;99.90;;;4.59;87.23;101359.34;4969185;29;20059;-84
2020/12/25 09:19:07;;;;;;;7.78;3.60;;;3.70;99.90;;;4.87;85.83;101365.81;4951108;29;20031;-83
2020/12/25 09:21:34;;;;;;;8.85;3.25;;;3.90;99.90;;;4.71;84.47;101370.78;4948437;29;20031;-85
2020/12/25 09:24:00;;;;;;;11.80;3.38;;;3.90;99.90;;;4.70;84.88;101365.53;4948994;29;20045;-86
2020/12/25 09:26:26;;;;;;;12.75;3.50;;;3.90;99.90;;;4.72;85.29;101377.13;4946408;29;20098;-87
2020/12/25 09:28:58;;;;;;;7.72;4.20;;;3.90;99.90;;;4.76;84.57;101384.53;4952541;29;20031;-86
2020/12/25 09:31:26;;;;;;;9.48;4.13;;;3.80;99.90;;;4.82;84.06;101376.16;4946233;29;20091;-86
2020/12/25 09:33:54;;;;;;;8.88;3.50;;;4.00;99.90;;;4.89;84.39;101380.16;4947203;29;20139;-86
2020/12/25 09:36:29;;;;;;;10.55;3.58;;;3.90;99.90;;;4.93;84.41;101383.16;4948600;29;20039;-84
2020/12/25 09:39:05;;;;;;;6.63;2.35;;;4.00;99.90;;;4.86;83.66;101380.75;4946357;29;20043;-88
2020/12/25 09:41:36;;;;;;;8.00;2.10;;;4.00;99.90;;;4.63;83.90;101376.97;4985077;28;20092;-85
2020/12/25 09:44:16;;;;;;;8.02;3.03;;;3.90;99.90;;;4.65;84.08;101391.34;4975293;29;20118;-86
2020/12/25 09:46:45;;;;;;;5.47;3.00;;;3.80;99.90;;;4.61;84.39;101383.94;4971517;29;20047;-86
2020/12/25 09:49:13;;;;;;;12.10;2.63;;;3.80;99.90;;;4.60;84.43;101385.88;4978890;28;20339;-87
2020/12/25 09:51:39;;;;;;;13.00;2.70;;;3.70;99.90;;;4.56;84.88;101384.84;4941848;29;20027;-86
2020/12/25 09:54:24;;;;;;;13.95;3.80;;;3.80;99.90;;;4.48;84.99;101382.75;4936840;29;20446;-84
2020/12/25 09:56:53;;;;;;;8.95;5.25;;;3.70;99.90;;;4.54;85.29;101386.25;4960854;28;20073;-85
2020/12/25 09:59:22;;;;;;;6.60;2.42;;;3.70;99.90;;;4.32;87.24;101375.81;4944033;29;20039;-87
2020/12/25 10:02:49;;;;;;;6.07;2.47;;;3.70;99.90;;;4.55;86.63;101385.97;4943565;29;20039;-86
2020/12/25 10:05:15;;;;;;;10.32;2.72;;;3.70;99.90;;;4.65;86.42;101391.34;4961300;29;20031;-88
2020/12/25 10:07:41;;;;;;;5.53;2.05;;;3.80;99.90;;;4.75;85.37;101385.63;4944126;29;20043;-87
2020/12/25 10:10:16;;;;;;;8.45;2.55;;;3.80;99.90;;;4.81;85.39;101388.34;4960634;29;20427;-88
2020/12/25 10:13:15;;;;;;;7.82;2.58;;;3.80;99.90;;;4.84;85.11;101388.56;4949522;29;20031;-89
2020/12/25 10:15:41;;;;;;;10.43;2.35;;;3.90;99.90;;;4.71;84.18;101379.09;4931590;29;20142;-87
2020/12/25 10:18:13;;;;;;;14.65;3.65;;;3.90;99.90;;;4.50;84.59;101379.69;4963502;28;20491;-87
2020/12/25 10:20:42;;;;;;;10.95;2.75;;;3.80;99.90;;;4.40;85.96;101379.84;4960581;29;20046;-89
2020/12/25 10:23:26;;;;;;;10.77;3.15;;;3.80;99.90;;;4.43;85.97;101388.34;4945035;29;20067;-86
2020/12/25 10:26:05;;;;;;;10.50;2.35;;;3.80;99.90;;;4.44;86.11;101384.47;4963383;29;20027;-85
2020/12/25 10:28:30;;;;;;;9.32;3.40;;;3.80;99.90;;;4.50;86.46;101386.03;4961989;29;20467;-85
2020/12/25 10:30:56;;;;;;;11.88;4.10;;;3.90;99.90;;;4.60;86.32;101383.13;4960456;29;20034;-85
2020/12/25 10:33:25;;;;;;;12.38;4.10;;;3.90;99.90;;;4.68;85.54;101376.09;4943215;29;20494;-84